Latest Coastal Weather Observations for Gunn Point

IDD60701

Issued at 9:55 am CST Thursday 27 November 2014 (issued every 10 minutes, with the page automatically refreshed every 10 minutes)

About coastal observations | Map of coastal stations | Coastal observations for NT | Marine services | Other Formats
Station Details ID: 014023 Name: GUNN POINT Lat: -12.25 Lon: 131.04 Height: 25.0 m
Data from the previous 72 hours. | See also: Recent months for locations in Northern Territory
Date/Time
CST
Temp

°C
Wind Pressure Rain
since 9am
mm
Weather Cloud Vis
km
Sea
Height
m
Swell
Dir
 
Speed
knots
Gust
knots
hPa Trend Height
m
Period
s
Dir
27/09:30am 32.6 E 4 8 1009.9 - 0.0 - - - - - - -
27/09:00am 31.6 E 4 7 1009.9 - 0.4 - - - - - - -
27/08:30am 30.7 E 3 6 1009.5 - 0.4 - - - - - - -
27/08:00am 29.7 ESE 2 4 1009.4 - 0.4 - - - - - - -
27/07:30am 27.8 ESE 1 3 1009.0 - 0.4 - - - - - - -
27/07:00am 25.5 CALM 0 0 1008.6 - 0.4 - - - - - - -
27/06:30am 24.2 CALM 0 0 1008.5 - 0.4 - - - - - - -
27/06:00am 24.0 CALM 0 0 1008.0 - 0.4 - - - - - - -
27/05:30am 24.5 CALM 0 0 1007.6 - 0.4 - - - - - - -
27/05:00am 24.6 CALM 0 0 1007.6 - 0.4 - - - - - - -
27/04:30am 24.6 CALM 0 0 1007.3 - 0.4 - - - - - - -
27/04:00am 25.2 CALM 0 0 1007.1 - 0.4 - - - - - - -
27/03:30am 25.9 CALM 0 0 1007.1 - 0.4 - - - - - - -
27/03:00am 25.9 CALM 0 0 1007.0 - 0.4 - - - - - - -
27/02:30am 26.0 CALM 0 0 1007.2 - 0.4 - - - - - - -
27/02:00am 26.0 CALM 0 0 1007.4 - 0.4 - - - - - - -
27/01:30am 26.0 CALM 0 0 1007.8 - 0.4 - - - - - - -
27/01:00am 26.0 CALM 0 0 1008.2 - 0.4 - - - - - - -
27/12:30am 26.9 CALM 0 0 1008.2 - 0.4 - - - - - - -
27/12:00am 27.0 NE 1 4 1008.4 - 0.4 - - - - - - -
 
Date/Time
CST
Temp

°C
Wind Pressure Rain
since 9am
mm
Weather Cloud Vis
km
Sea
Height
m
Swell
Dir
 
Speed
knots
Gust
knots
hPa Trend Height
m
Period
s
Dir
26/11:30pm 26.5 CALM 0 2 1008.7 - 0.4 - - - - - - -
26/11:00pm 26.6 CALM 0 0 1008.8 - 0.4 - - - - - - -
26/10:30pm 26.7 CALM 0 0 1008.4 - 0.4 - - - - - - -
26/10:00pm 26.5 CALM 0 0 1008.1 - 0.4 - - - - - - -
26/09:30pm 26.3 CALM 0 0 1007.8 - 0.4 - - - - - - -
26/09:00pm 26.1 N 1 2 1007.6 - 0.4 - - - - - - -
26/08:30pm 26.3 CALM 0 0 1007.3 - 0.4 - - - - - - -
26/08:00pm 26.8 CALM 0 0 1006.7 - 0.4 - - - - - - -
26/07:30pm 27.5 CALM 0 0 1006.2 - 0.4 - - - - - - -
26/07:00pm 28.9 CALM 0 0 1005.6 - 0.4 - - - - - - -
26/06:30pm 29.6 NE 2 4 1005.6 - 0.4 - - - - - - -
26/06:00pm 30.1 NNE 6 10 1005.5 - 0.4 - - - - - - -
26/05:30pm 31.3 NNE 4 9 1005.5 - 0.4 - - - - - - -
26/05:00pm 32.3 N 5 8 1005.4 - 0.4 - - - - - - -
26/04:30pm 32.0 NE 2 5 1005.3 - 0.2 - - - - - - -
26/04:00pm 30.2 NNE 2 4 1005.3 - 0.2 - - - - - - -
26/03:30pm 28.8 CALM 0 2 1005.4 - 0.2 - - - - - - -
26/03:00pm 27.5 ESE 1 4 1005.9 - 0.2 - - - - - - -
26/02:30pm 26.6 CALM 0 0 1006.0 - 0.2 - - - - - - -
26/02:00pm 25.4 S 4 11 1006.5 - 0.2 - - - - - - -
26/01:30pm 25.1 SSW 5 9 1007.2 - 0.2 - - - - - - -
26/01:00pm 30.0 S 10 15 1007.0 - 0.0 - - - - - - -
26/12:30pm 31.0 W 5 8 1007.1 - 0.0 - - - - - - -
26/12:00pm 30.8 WNW 3 5 1007.8 - 0.0 - - - - - - -
26/11:30am 31.7 NE 4 9 1008.0 - 0.0 - - - - - - -
26/11:00am 31.5 NE 3 7 1008.3 - 0.0 - - - - - - -
26/10:30am 31.4 E 3 6 1008.7 - 0.0 - - - - - - -
26/10:00am 31.1 E 4 9 1008.9 - 0.0 - - - - - - -
26/09:30am 30.2 E 2 5 1009.1 - 0.0 - - - - - - -
26/09:00am 29.3 ESE 3 5 1009.1 - 5.0 - - - - - - -
26/08:30am 27.6 SE 3 7 1008.8 - 5.0 - - - - - - -
26/08:00am 26.3 ESE 3 4 1008.3 - 5.0 - - - - - - -
26/07:30am 25.7 E 3 4 1008.0 - 5.0 - - - - - - -
26/07:00am 24.8 CALM 0 2 1007.8 - 5.0 - - - - - - -
26/06:30am 24.2 ESE 2 3 1007.3 - 5.0 - - - - - - -
26/06:00am 24.1 SE 2 3 1006.7 - 5.0 - - - - - - -
26/05:30am 24.2 E 2 3 1006.5 - 5.0 - - - - - - -
26/05:00am 24.3 E 2 4 1006.5 - 5.0 - - - - - - -
26/04:30am 24.3 ESE 2 3 1006.4 - 5.0 - - - - - - -
26/04:00am 24.4 CALM 0 0 1006.3 - 5.0 - - - - - - -
26/03:30am 24.4 CALM 0 1 1006.3 - 5.0 - - - - - - -
26/03:00am 24.4 SE 3 6 1006.9 - 5.0 - - - - - - -
26/02:30am 24.4 SE 3 5 1006.9 - 5.0 - - - - - - -
26/02:00am 25.1 ESE 1 2 1006.9 - 5.0 - - - - - - -
26/01:30am 25.3 CALM 0 2 1007.0 - 5.0 - - - - - - -
26/01:00am 25.4 CALM 0 0 1007.3 - 5.0 - - - - - - -
26/12:30am 25.3 CALM 0 0 1007.7 - 4.8 - - - - - - -
26/12:00am 25.0 CALM 0 0 1007.9 - 4.8 - - - - - - -
 
Date/Time
CST
Temp

°C
Wind Pressure Rain
since 9am
mm
Weather Cloud Vis
km
Sea
Height
m
Swell
Dir
 
Speed
knots
Gust
knots
hPa Trend Height
m
Period
s
Dir
25/11:30pm 25.2 CALM 0 0 1008.2 - 4.8 - - - - - - -
25/11:00pm 25.4 CALM 0 0 1008.2 - 4.8 - - - - - - -
25/10:30pm 25.4 CALM 0 0 1008.1 - 4.8 - - - - - - -
25/10:00pm 25.2 CALM 0 0 1007.9 - 4.8 - - - - - - -
25/09:30pm 25.1 CALM 0 0 1007.6 - 4.8 - - - - - - -
25/09:00pm 25.1 CALM 0 0 1007.6 - 4.8 - - - - - - -
25/08:30pm 24.9 CALM 0 0 1007.5 - 4.8 - - - - - - -
25/08:00pm 24.8 S 1 2 1007.3 - 4.8 - - - - - - -
25/07:30pm 24.6 NE 1 3 1006.5 - 4.8 - - - - - - -
25/07:00pm 24.5 E 1 3 1006.7 - 4.0 - - - - - - -
25/06:30pm 24.3 SE 2 4 1006.8 - 3.0 - - - - - - -
25/06:00pm 24.4 CALM 0 0 1006.7 - 3.0 Recent precip. - - - - - -
25/05:30pm 24.2 S 1 3 1007.0 - 2.8 - - - - - - -
25/05:00pm 24.1 SE 3 7 1007.0 - 2.6 - - - - - - -
25/04:30pm 25.1 S 5 10 1006.3 - 0.4 - - - - - - -
25/04:00pm 28.7 SW 3 5 1006.1 - 0.4 - - - - - - -
25/03:30pm 29.7 W 3 5 1005.8 - 0.4 - - - - - - -
25/03:00pm 30.6 WNW 6 9 1006.3 - 0.4 - - - - - - -
25/02:30pm 32.3 WNW 5 10 1006.0 - 0.4 - - - - - - -
25/02:00pm 33.0 WSW 3 5 1005.9 - 0.4 - - - - - - -
25/01:30pm 30.6 W 4 7 1006.8 - 0.4 - - - - - - -
25/01:00pm 32.0 W 3 6 1007.5 - 0.0 - - - - - - -
25/12:30pm 31.1 W 2 4 1008.3 - 0.0 - - - - - - -
25/12:00pm 30.8 WSW 2 4 1008.7 - 0.0 - - - - - - -
25/11:30am 30.4 W 3 6 1009.0 - 0.0 - - - - - - -
25/11:00am 30.3 W 4 6 1009.2 - 0.0 - - - - - - -
25/10:30am 31.0 W 4 7 1009.3 - 0.0 - - - - - - -
25/10:00am 31.3 W 4 6 1009.4 - 0.0 - - - - - - -
25/09:30am 31.1 WSW 3 7 1009.3 - 0.0 - - - - - - -
25/09:00am 30.9 W 1 4 1009.2 - - - - - - - - -
25/08:30am 29.6 CALM 0 2 1009.0 - - - - - - - - -
25/07:30am 27.4 CALM 0 1 1008.3 - - - - - - - - -
25/07:00am 25.7 CALM 0 2 1008.0 - - - - - - - - -
25/06:30am 24.7 ESE 1 2 1007.9 - - - - - - - - -
25/06:00am 24.6 SE 2 3 1007.7 - - Recent precip. - - - - - -
25/05:30am 24.7 CALM 0 0 1007.7 - 10.8 - - - - - - -
25/05:00am 24.7 ESE 2 3 1007.7 - 10.6 - - - - - - -
25/04:30am 24.9 SE 4 7 1008.0 - 10.6 - - - - - - -
25/04:00am 25.3 S 3 6 1007.8 - 10.6 - - - - - - -
25/03:30am 25.6 S 2 3 1007.7 - 10.6 - - - - - - -
25/03:00am 25.4 CALM 0 0 1007.4 - 10.6 - - - - - - -
25/02:30am 25.5 CALM 0 0 1007.2 - 10.6 - - - - - - -
25/02:00am 25.3 CALM 0 0 1007.5 - 10.6 - - - - - - -
25/01:30am 25.3 E 1 3 1007.8 - 10.6 - - - - - - -
25/01:00am 25.2 ESE 2 4 1008.3 - 10.6 - - - - - - -
25/12:30am 25.3 N 3 5 1008.1 - 10.6 - - - - - - -
25/12:00am 25.3 CALM 0 1 1008.7 - 10.6 - - - - - - -
 
Date/Time
CST
Temp

°C
Wind Pressure Rain
since 9am
mm
Weather Cloud Vis
km
Sea
Height
m
Swell
Dir
 
Speed
knots
Gust
knots
hPa Trend Height
m
Period
s
Dir
24/11:30pm 25.3 ENE 1 4 1009.2 - 10.6 - - - - - - -
24/11:00pm 25.2 NE 1 3 1009.3 - 10.6 - - - - - - -
24/10:30pm 25.3 CALM 0 2 1009.7 - 10.6 - - - - - - -
24/10:00pm 25.3 CALM 0 0 1009.3 - 10.6 - - - - - - -
24/09:30pm 25.4 CALM 0 2 1009.1 - 10.6 - - - - - - -
24/09:00pm 25.1 S 3 7 1009.4 - 10.6 - - - - - - -
24/08:30pm 24.9 SSW 3 6 1009.1 - 10.6 - - - - - - -
24/08:00pm 24.9 S 6 13 1009.5 - 10.6 - - - - - - -
24/07:30pm 27.2 S 12 22 1009.3 - 1.2 - - - - - - -
24/07:00pm 30.4 WNW 4 8 1008.2 - 0.0 - - - - - - -
24/06:30pm 31.1 W 5 8 1007.3 - 0.0 - - - - - - -
24/06:00pm 32.6 NW 3 9 1006.9 - 0.0 - - - - - - -
24/05:30pm 33.2 NW 4 6 1006.2 - 0.0 - - - - - - -
24/05:00pm 34.9 N 4 9 1005.7 - 0.0 - - - - - - -
24/04:30pm 33.9 NNE 5 11 1006.0 - 0.0 - - - - - - -
24/04:00pm 33.9 NNE 6 11 1006.0 - 0.0 - - - - - - -
24/03:30pm 35.2 N 7 13 1006.0 - 0.0 - - - - - - -
24/03:00pm 35.7 N 7 14 1006.6 - 0.0 - - - - - - -
24/02:30pm 36.2 N 7 11 1006.8 - 0.0 - - - - - - -
24/02:00pm 33.5 WNW 6 12 1007.4 - 0.0 - - - - - - -
24/01:30pm 33.0 W 7 11 1008.3 - 0.0 - - - - - - -
24/01:00pm 32.9 WNW 5 9 1009.2 - 0.0 - - - - - - -
24/12:30pm 32.3 WNW 5 9 1009.8 - 0.0 - - - - - - -
24/12:00pm 32.4 WNW 5 10 1010.3 - 0.0 - - - - - - -
24/11:30am 32.0 WNW 5 10 1010.7 - 0.0 - - - - - - -
24/11:00am 32.1 W 5 9 1010.8 - 0.0 - - - - - - -
24/10:30am 31.4 WNW 4 7 1011.1 - 0.0 - - - - - - -
24/10:00am 30.2 W 3 6 1010.9 - 0.0 - - - - - - -

Other Formats:

Comma delimited format used in spreadsheet applications
http://www.bom.gov.au/fwo/IDD60701/IDD60701.99501.axf

JavaScript Object Notation format (JSON) in row-major order
http://www.bom.gov.au/fwo/IDD60701/IDD60701.99501.json